tititudorancea.com
Station Historical Data
 
Daily Summary for October 20, 2018 Units:  Metric    English   Both
« Previous Day
Next Day »
Daily Weekly Monthly Yearly Custom
  Current: High: Low: Average:
Temperature: 6.7 °C -17.8 °C 6.7 °C 11.2 °C
Dew Point: 4.9 °C -17.8 °C 4.4 °C 6.9 °C
Humidity: 88 % Humidity % 41 % 75 %
Wind Speed: 0 km/h 0 km/h 0 km/h 18.2 km/h
Wind Gust: 0 km/h 0 km/h - -
Wind:Calm - - SW
Pressure: 1019.9 hPa 0 hPa 1005.6 hPa -
Precipitation: 1.6 mm      
Historical Graphs
 
 
Ararat weather Find more about Weather in Ararat, AU


 



 


Tabular Data for October 20, 2018
Time Temperature Dew Point Pressure Wind Wind Speed Wind Gust Humidity Rainfall Rate (Hourly)
-17.8 °C -17.8 °C 0 hPa Calm     Humidity % 0 mm
00:04 21.5 °C 7.7 °C 1006.3 hPa WNW 12.9 km/h 9.8 km/h 41 % 0 mm
00:09 21 °C 7.9 °C 1006.3 hPa WNW 14.8 km/h 10.6 km/h 43 % 0 mm
00:14 20.7 °C 8.3 °C 1005.6 hPa WSW 13 km/h 7.4 km/h 45 % 0 mm
00:19 20.4 °C 8.4 °C 1005.6 hPa WSW 8 km/h 6.4 km/h 46 % 0 mm
00:24 20.2 °C 8.2 °C 1006 hPa WSW 7.4 km/h 4.7 km/h 46 % 0 mm
00:29 19.8 °C 9.4 °C 1006.3 hPa SSW 24.1 km/h 19.2 km/h 51 % 0 mm
00:34 18.2 °C 10.6 °C 1006.7 hPa SW 29.6 km/h 18.2 km/h 61 % 0 mm
00:39 17 °C 10.8 °C 1006.7 hPa South 18.5 km/h 12.9 km/h 67 % 0 mm
00:44 16.3 °C 10.8 °C 1006.7 hPa SSW 25.9 km/h 13.5 km/h 70 % 0 mm
00:49 16 °C 10.9 °C 1006.7 hPa South 11.3 km/h 6.9 km/h 72 % 0 mm
00:54 15.6 °C 10.7 °C 1007 hPa South 16.7 km/h 12.9 km/h 73 % 0 mm
00:59 15 °C 10.6 °C 1007 hPa SSE 25.9 km/h 17.9 km/h 75 % 0 mm
01:04 14.6 °C 10.6 °C 1007 hPa SSW 29.6 km/h 17.7 km/h 77 % 0 mm
01:09 14.4 °C 10.6 °C 1007 hPa SSW 22.2 km/h 10.3 km/h 78 % 0 mm
01:14 14.3 °C 10.7 °C 1007 hPa South 20.9 km/h 14.6 km/h 79 % 0 mm
01:19 14.1 °C 10.7 °C 1006.7 hPa SSW 20.9 km/h 15.4 km/h 80 % 0 mm
01:24 13.9 °C 10.7 °C 1006.7 hPa SSW 19.3 km/h 14.8 km/h 81 % 0 mm
01:29 13.8 °C 10.8 °C 1007 hPa SSW 22.5 km/h 17.7 km/h 82 % 0 mm
01:34 13.7 °C 10.7 °C 1007.3 hPa South 18.5 km/h 11.3 km/h 82 % 0 mm
01:39 13.6 °C 10.6 °C 1007.3 hPa South 22.2 km/h 12.4 km/h 82 % 0 mm
01:44 13.5 °C 10.7 °C 1007.3 hPa SSW 18.5 km/h 8.7 km/h 83 % 0 mm
01:49 13.4 °C 10.6 °C 1007.3 hPa South 20.4 km/h 12.4 km/h 83 % 0 mm
01:54 13.2 °C 10.5 °C 1007.3 hPa SSW 25.9 km/h 20.3 km/h 84 % 0 mm
01:59 13.1 °C 10.4 °C 1007.3 hPa South 14.8 km/h 12.2 km/h 84 % 0 mm
02:04 13 °C 10.3 °C 1007.7 hPa South 33.3 km/h 17.4 km/h 84 % 0 mm
02:09 12.9 °C 10.3 °C 1007.7 hPa SSW 11.3 km/h 8.4 km/h 84 % 0 mm
02:14 12.9 °C 10.2 °C 1008 hPa South 22.2 km/h 10.3 km/h 84 % 0 mm
02:19 12.8 °C 10.3 °C 1008 hPa SSW 20.4 km/h 11.4 km/h 85 % 0 mm
02:24 12.7 °C 10.3 °C 1008 hPa SSW 19.3 km/h 14 km/h 85 % 0 mm
02:29 12.6 °C 10.2 °C 1008 hPa SW 27.8 km/h 24 km/h 85 % 0 mm
02:34 12.4 °C 9.9 °C 1008.4 hPa WSW 31.5 km/h 25.3 km/h 85 % 0 mm
02:39 12.2 °C 9.6 °C 1008 hPa SSW 42.6 km/h 27 km/h 84 % 0 mm
02:44 12.1 °C 9.4 °C 1008 hPa SW 46.3 km/h 26.1 km/h 84 % 0 mm
02:49 11.9 °C 9.2 °C 1008 hPa SW 35.2 km/h 23.2 km/h 83 % 0 mm
02:54 11.9 °C 9.2 °C 1008.4 hPa SW 31.5 km/h 21.2 km/h 83 % 0 mm
02:59 11.8 °C 9.1 °C 1008.4 hPa SW 31.5 km/h 21.7 km/h 83 % 0 mm
03:04 11.7 °C 9.1 °C 1008.4 hPa SSW 38.9 km/h 22 km/h 84 % 0 mm
03:09 11.4 °C 8.9 °C 1008.4 hPa SSW 40.7 km/h 20.1 km/h 85 % 0 mm
03:14 11.2 °C 8.7 °C 1008.4 hPa SW 38.9 km/h 21.4 km/h 85 % 0 mm
03:19 11 °C 8.4 °C 1008.4 hPa SSW 37 km/h 24.9 km/h 84 % 0 mm
03:24 10.9 °C 8.3 °C 1008.7 hPa SW 35.2 km/h 22.2 km/h 84 % 0 mm
03:29 10.8 °C 8.2 °C 1008.7 hPa SW 29.6 km/h 18.7 km/h 84 % 0 mm
03:34 10.7 °C 8.3 °C 1008.7 hPa SSW 27.8 km/h 23.3 km/h 85 % 0 mm
03:39 10.6 °C 8.1 °C 1008.7 hPa SSW 22.2 km/h 13.5 km/h 85 % 0 mm
03:44 10.4 °C 8.2 °C 1009 hPa SSW 24.1 km/h 18.3 km/h 86 % 0 mm
03:49 10.3 °C 7.9 °C 1009.4 hPa SW 31.5 km/h 24.6 km/h 85 % 0 mm
03:54 10.3 °C 7.7 °C 1009.4 hPa SW 31.5 km/h 21.2 km/h 84 % 0 mm
03:59 10.3 °C 7.5 °C 1009 hPa SSW 31.5 km/h 15.6 km/h 83 % 0 mm
04:04 10.3 °C 7.3 °C 1009 hPa SSW 25.9 km/h 17.5 km/h 82 % 0 mm
04:09 10.2 °C 7.3 °C 1009 hPa SW 18.5 km/h 15.3 km/h 82 % 0 mm
04:14 10.2 °C 7.1 °C 1009.4 hPa SSW 31.5 km/h 18.8 km/h 81 % 0 mm
04:19 10.2 °C 7.1 °C 1009.7 hPa SW 25.9 km/h 16.4 km/h 81 % 0 mm
04:24 10.2 °C 6.9 °C 1009.7 hPa SW 27.8 km/h 18 km/h 80 % 0 mm
04:29 10.1 °C 7 °C 1008.7 hPa South 31.5 km/h 12.6 km/h 81 % 0 mm
04:34 10.1 °C 6.9 °C 1009 hPa SSW 22.2 km/h 18.7 km/h 81 % 0 mm
04:39 10 °C 7.1 °C 1009 hPa SSW 24.1 km/h 16.6 km/h 82 % 0 mm
04:44 9.9 °C 6.9 °C 1009 hPa SSW 17.7 km/h 12.2 km/h 82 % 0 mm
04:49 9.8 °C 6.9 °C 1009.4 hPa SW 18.5 km/h 13.4 km/h 82 % 0 mm
04:54 9.8 °C 6.9 °C 1009.4 hPa SW 31.5 km/h 11.9 km/h 82 % 0 mm
04:59 9.8 °C 6.8 °C 1010 hPa SW 25.9 km/h 19 km/h 82 % 0 mm
05:04 9.8 °C 6.9 °C 1010 hPa SSW 18.5 km/h 10.9 km/h 82 % 0 mm
05:09 9.8 °C 6.7 °C 1010.4 hPa SW 24.1 km/h 11.3 km/h 81 % 0 mm
05:14 9.8 °C 6.8 °C 1010 hPa SSW 20.4 km/h 13.5 km/h 82 % 0 mm
05:19 9.8 °C 6.8 °C 1010 hPa SW 20.9 km/h 11.3 km/h 82 % 0 mm
05:24 9.7 °C 6.8 °C 1010 hPa SSW 16.7 km/h 10.9 km/h 82 % 0 mm
05:29 9.7 °C 6.8 °C 1009.7 hPa SSW 16.1 km/h 12.7 km/h 82 % 0 mm
05:34 9.7 °C 6.8 °C 1010.4 hPa SSW 16.7 km/h 14 km/h 82 % 0 mm
05:39 9.7 °C 6.8 °C 1010.4 hPa SSW 16.7 km/h 13.5 km/h 82 % 0 mm
05:44 9.7 °C 7 °C 1010.4 hPa SW 25.9 km/h 14.3 km/h 83 % 0 mm
05:49 9.7 °C 6.8 °C 1010.7 hPa SW 14.5 km/h 11.1 km/h 82 % 0 mm
05:54 9.6 °C 6.5 °C 1011.1 hPa South 24.1 km/h 14.6 km/h 81 % 0 mm
05:59 9.6 °C 5.9 °C 1011.4 hPa SW 24.1 km/h 16.6 km/h 78 % 0 mm
06:04 9.6 °C 5.8 °C 1011.1 hPa SW 19.3 km/h 12.1 km/h 77 % 0 mm
06:09 9.6 °C 5.7 °C 1011.4 hPa SSW 13 km/h 12.7 km/h 77 % 0 mm
06:14 9.4 °C 5.6 °C 1011.4 hPa SW 14.8 km/h 10.3 km/h 77 % 0 mm
06:19 9.3 °C 5.5 °C 1011.1 hPa SSW 11.1 km/h 9.5 km/h 77 % 0.2 mm
06:24 9.2 °C 5.6 °C 1011.1 hPa SSW 5.6 km/h 4.7 km/h 78 % 0.2 mm
06:29 9.1 °C 5.8 °C 1011.1 hPa SSW 9.3 km/h 7.4 km/h 80 % 0.41 mm
06:34 8.9 °C 5.8 °C 1010.7 hPa North 7.4 km/h 6.3 km/h 81 % 0.41 mm
06:39 8.8 °C 5.9 °C 1010 hPa SSW 8 km/h 5.5 km/h 82 % 0.41 mm
06:44 8.7 °C 5.9 °C 1011.1 hPa SSW 7.4 km/h 6.1 km/h 83 % 0.41 mm
06:49 8.7 °C 5.9 °C 1011.1 hPa SSW 11.3 km/h 8.2 km/h 83 % 0.41 mm
06:54 8.7 °C 5.9 °C 1010.4 hPa North 9.3 km/h 5.5 km/h 83 % 0.41 mm
06:59 8.6 °C 5.9 °C 1010.4 hPa SSW 13 km/h 7.6 km/h 83 % 0.41 mm
07:04 8.6 °C 5.8 °C 1010.7 hPa SSW 7.4 km/h 6.6 km/h 83 % 0.41 mm
07:09 8.5 °C 5.8 °C 1010.7 hPa SSW 7.4 km/h 6.1 km/h 83 % 0.41 mm
07:14 8.4 °C 5.9 °C 1011.1 hPa SSW 7.4 km/h 6.3 km/h 84 % 0.41 mm
07:19 8.4 °C 5.8 °C 1011.1 hPa SSW 13 km/h 8.2 km/h 84 % 0.2 mm
07:24 8.4 °C 6 °C 1011.4 hPa SSW 5.6 km/h 3.5 km/h 85 % 0.2 mm
07:29 8.4 °C 6 °C 1011.7 hPa SSW 7.4 km/h 5.3 km/h 85 % 0 mm
07:34 8.5 °C 6.3 °C 1011.7 hPa SSW 13 km/h 6.1 km/h 86 % 0 mm
07:39 8.6 °C 6.4 °C 1011.7 hPa SSW 9.3 km/h 8.9 km/h 86 % 0 mm
07:44 8.7 °C 6.5 °C 1011.7 hPa SSW 11.1 km/h 2.7 km/h 86 % 0 mm
07:49 8.8 °C 6.6 °C 1012.1 hPa SSW 9.3 km/h 3.1 km/h 86 % 0 mm
07:54 8.9 °C 6.7 °C 1012.1 hPa SSW 9.3 km/h 2.7 km/h 86 % 0 mm
07:59 9.1 °C 6.9 °C 1012.1 hPa SSW 9.3 km/h 7.2 km/h 86 % 0 mm
08:04 9.4 °C 7 °C 1012.4 hPa SSW 16.7 km/h 9.8 km/h 85 % 0 mm
08:09 9.7 °C 7.1 °C 1012.4 hPa SSW 11.1 km/h 8.7 km/h 84 % 0 mm
08:14 9.8 °C 7 °C 1012.4 hPa SW 14.8 km/h 10.1 km/h 83 % 0 mm
08:19 10.1 °C 7.1 °C 1012.4 hPa SW 13 km/h 7.9 km/h 82 % 0 mm
08:24 10.2 °C 7.2 °C 1012.4 hPa SW 11.1 km/h 8.7 km/h 82 % 0 mm
08:29 10.3 °C 7.2 °C 1012.4 hPa SW 18.5 km/h 13 km/h 81 % 0 mm
08:34 10.4 °C 7.2 °C 1012.4 hPa SW 14.8 km/h 11.4 km/h 80 % 0 mm
08:39 10.6 °C 7.1 °C 1012.8 hPa SW 16.1 km/h 12.1 km/h 79 % 0 mm
08:42 10.7 °C 7.2 °C 1012.8 hPa SW 18.5 km/h 13.7 km/h 79 % 0 mm
09:44 12.3 °C 6.6 °C 1013.1 hPa West 18.5 km/h 18.5 km/h 68 % 0 mm
09:49 11.9 °C 6.2 °C 1013.1 hPa WSW 20.9 km/h 12.4 km/h 68 % 0 mm
09:54 11.7 °C 6 °C 1013.1 hPa SW 22.2 km/h 16.1 km/h 68 % 0 mm
09:59 11.4 °C 5.7 °C 1013.1 hPa SSW 20.4 km/h 15.4 km/h 68 % 0 mm
10:04 11.8 °C 6.6 °C 1013.1 hPa SW 18.5 km/h 16.6 km/h 70 % 0 mm
10:09 12.1 °C 5.9 °C 1013.1 hPa WSW 24.1 km/h 16.6 km/h 66 % 0 mm
10:14 12 °C 6.1 °C 1013.1 hPa WSW 25.9 km/h 18 km/h 67 % 0 mm
10:19 11.9 °C 6.2 °C 1013.1 hPa West 20.9 km/h 14.3 km/h 68 % 0 mm
10:24 11.8 °C 6.1 °C 1013.4 hPa WSW 18.5 km/h 15.8 km/h 68 % 0 mm
10:29 11.6 °C 5.7 °C 1013.4 hPa WSW 25.9 km/h 13.7 km/h 67 % 0 mm
10:34 11.7 °C 5.8 °C 1013.4 hPa SSW 22.2 km/h 12.9 km/h 67 % 0 mm
10:39 12.2 °C 5.8 °C 1013.4 hPa SW 27.8 km/h 24 km/h 65 % 0 mm
10:44 12.6 °C 5.7 °C 1013.4 hPa SW 20.4 km/h 12.4 km/h 63 % 0 mm
10:49 12.6 °C 5.3 °C 1013.4 hPa SW 31.5 km/h 20.8 km/h 61 % 0 mm
10:54 12.6 °C 5.3 °C 1013.4 hPa WSW 27.8 km/h 16.1 km/h 61 % 0 mm
10:59 12.6 °C 5.3 °C 1013.4 hPa SW 25.9 km/h 16.3 km/h 61 % 0 mm
11:04 12.4 °C 5.6 °C 1013.8 hPa SW 29.6 km/h 23.2 km/h 63 % 0 mm
11:09 12.4 °C 4.8 °C 1013.4 hPa SW 22.2 km/h 18.5 km/h 60 % 0 mm
11:14 12.7 °C 5.4 °C 1013.4 hPa SW 20.4 km/h 13.4 km/h 61 % 0 mm
11:19 13 °C 5.4 °C 1013.4 hPa SSW 25.9 km/h 15.9 km/h 60 % 0 mm
11:24 12.7 °C 4.8 °C 1013.8 hPa SW 19.3 km/h 16.3 km/h 59 % 0 mm
11:29 12.8 °C 5.5 °C 1013.8 hPa SSW 25.9 km/h 18.2 km/h 61 % 0 mm
11:34 13.1 °C 5.8 °C 1013.8 hPa South 27.8 km/h 16.9 km/h 61 % 0 mm
11:39 13.8 °C 6.4 °C 1013.8 hPa SW 20.4 km/h 14 km/h 61 % 0 mm
11:44 13.6 °C 5.2 °C 1013.8 hPa SSW 18.5 km/h 13 km/h 57 % 0 mm
11:49 13.7 °C 5.3 °C 1013.8 hPa South 16.7 km/h 12.6 km/h 57 % 0 mm
11:54 13.4 °C 5.6 °C 1013.8 hPa SW 18.5 km/h 14 km/h 59 % 0 mm
11:59 13.6 °C 5.7 °C 1013.8 hPa SSW 29.6 km/h 16.7 km/h 59 % 0 mm
12:04 13.4 °C 5.3 °C 1013.8 hPa North 29.6 km/h 16.1 km/h 58 % 0 mm
12:09 13.5 °C 5.4 °C 1013.8 hPa SW 22.2 km/h 14.6 km/h 58 % 0 mm
12:14 13.8 °C 5.2 °C 1013.8 hPa North 29.6 km/h 15.3 km/h 56 % 0 mm
12:19 14 °C 5.3 °C 1013.8 hPa SSW 18.5 km/h 15.8 km/h 56 % 0 mm
12:24 14 °C 5.1 °C 1013.8 hPa SSW 22.2 km/h 13.8 km/h 55 % 0 mm
12:29 13.6 °C 5.5 °C 1013.8 hPa SW 24.1 km/h 17.5 km/h 58 % 0 mm
12:34 13.1 °C 6 °C 1013.8 hPa SSW 31.5 km/h 17.4 km/h 62 % 0 mm
12:39 12.9 °C 6.5 °C 1013.8 hPa SSW 27.8 km/h 14.2 km/h 65 % 0 mm
12:44 13 °C 6.1 °C 1014.1 hPa SSW 33.3 km/h 25.4 km/h 63 % 0 mm
12:49 13.1 °C 7.1 °C 1014.1 hPa SW 18.5 km/h 16.3 km/h 67 % 0 mm
12:54 13.2 °C 6.6 °C 1013.8 hPa SW 18.5 km/h 16.1 km/h 64 % 0 mm
12:59 13.6 °C 7.1 °C 1013.8 hPa SW 25.9 km/h 11.1 km/h 65 % 0 mm
13:04 14.1 °C 6.7 °C 1013.8 hPa SSW 19.3 km/h 17.2 km/h 61 % 0 mm
13:09 14 °C 6.3 °C 1013.8 hPa WSW 18.5 km/h 16.6 km/h 60 % 0 mm
13:14 14 °C 6.6 °C 1014.1 hPa SW 29.6 km/h 19.6 km/h 61 % 0 mm
13:19 12.5 °C 7.2 °C 1014.1 hPa SW 27.8 km/h 20.8 km/h 70 % 0.41 mm
13:24 11.4 °C 6.9 °C 1014.1 hPa SSW 18.5 km/h 14 km/h 74 % 0.99 mm
13:29 11.1 °C 7.6 °C 1014.1 hPa SSW 20.4 km/h 14.8 km/h 79 % 0.99 mm
13:34 11.3 °C 8.3 °C 1014.1 hPa South 18.5 km/h 11.9 km/h 82 % 0.99 mm
13:39 11.4 °C 8.7 °C 1014.1 hPa SSW 25.9 km/h 13.4 km/h 83 % 1.19 mm
13:44 11.2 °C 8.2 °C 1014.1 hPa South 29.6 km/h 11.3 km/h 82 % 1.19 mm
13:49 11.3 °C 9.1 °C 1014.1 hPa SSW 16.7 km/h 11.1 km/h 86 % 1.19 mm
13:54 11.6 °C 9 °C 1014.1 hPa SW 20.4 km/h 13.2 km/h 84 % 1.19 mm
13:59 12.2 °C 9.6 °C 1014.1 hPa SSW 18.5 km/h 11.1 km/h 84 % 1.19 mm
14:04 12.8 °C 9.3 °C 1014.1 hPa SW 18.5 km/h 14.2 km/h 79 % 1.19 mm
14:09 12.7 °C 8.4 °C 1014.1 hPa SW 22.2 km/h 11.4 km/h 75 % 1.19 mm
14:14 12.8 °C 7.8 °C 1014.1 hPa SSW 22.2 km/h 13.5 km/h 72 % 1.19 mm
14:19 13.2 °C 7.7 °C 1013.8 hPa SW 24.1 km/h 15.1 km/h 69 % 0.79 mm
14:24 13.8 °C 7.1 °C 1014.1 hPa SW 27.4 km/h 22 km/h 64 % 0.2 mm
14:29 14 °C 6.6 °C 1014.1 hPa SW 33.3 km/h 24.3 km/h 61 % 0.2 mm
14:34 14.2 °C 6.3 °C 1013.8 hPa SW 31.5 km/h 18.3 km/h 59 % 0.2 mm
14:39 14.7 °C 7 °C 1014.1 hPa SSW 18.5 km/h 13.5 km/h 60 % 0 mm
14:44 14.3 °C 7.3 °C 1014.1 hPa SSW 29.6 km/h 20.1 km/h 63 % 0 mm
14:49 13.7 °C 7.9 °C 1014.4 hPa South 16.1 km/h 16.9 km/h 68 % 0 mm
14:54 13.3 °C 7.9 °C 1014.4 hPa South 24.1 km/h 12.9 km/h 70 % 0 mm
14:59 13.5 °C 8.6 °C 1014.1 hPa SSW 22.2 km/h 19.5 km/h 72 % 0 mm
15:04 13.4 °C 8.4 °C 1014.1 hPa SSW 22.2 km/h 13.8 km/h 72 % 0 mm
15:08 13.3 °C 8.4 °C 1014.4 hPa SSW 22.2 km/h 15.3 km/h 72 % 0 mm
21:04 9.2 °C 4.8 °C 1018.8 hPa SSW 3.7 km/h 1.3 km/h 74 % 0 mm
21:09 9.1 °C 4.9 °C 1018.8 hPa SSW 3.7 km/h 1.9 km/h 75 % 0 mm
21:14 9 °C 4.8 °C 1018.8 hPa SSW 3.7 km/h 2.1 km/h 75 % 0 mm
21:19 8.9 °C 4.9 °C 1018.8 hPa SSW 1.6 km/h 1 km/h 76 % 0 mm
21:24 8.8 °C 4.8 °C 1018.8 hPa SSW 3.7 km/h 1.3 km/h 76 % 0 mm
21:29 8.6 °C 4.6 °C 1018.8 hPa Calm   0.2 km/h 76 % 0 mm
21:34 8.4 °C 4.7 °C 1019.2 hPa Calm     77 % 0 mm
21:39 8.4 °C 4.8 °C 1019.2 hPa Calm     78 % 0 mm
21:44 8.3 °C 4.8 °C 1019.2 hPa SSW 3.7 km/h 3.5 km/h 79 % 0 mm
21:49 8.2 °C 4.9 °C 1019.2 hPa SSW 5.6 km/h 3.2 km/h 80 % 0 mm
21:54 8.2 °C 5.1 °C 1019.5 hPa SSW 3.7 km/h 2.7 km/h 81 % 0 mm
21:59 8.1 °C 5.1 °C 1019.5 hPa SSW 3.7 km/h 1.3 km/h 81 % 0 mm
22:04 8 °C 4.9 °C 1019.5 hPa SSW 1.9 km/h 0.2 km/h 81 % 0 mm
22:09 7.8 °C 4.8 °C 1019.5 hPa Calm     81 % 0 mm
22:14 7.7 °C 4.6 °C 1019.5 hPa Calm     81 % 0 mm
22:19 7.5 °C 4.4 °C 1019.5 hPa Calm     81 % 0 mm
22:24 7.4 °C 4.5 °C 1019.5 hPa Calm     82 % 0 mm
22:29 7.2 °C 4.5 °C 1019.9 hPa Calm     83 % 0 mm
22:34 7.1 °C 4.4 °C 1019.9 hPa Calm     83 % 0 mm
22:39 6.9 °C 4.4 °C 1019.9 hPa Calm     84 % 0 mm
22:44 6.9 °C 4.4 °C 1019.9 hPa Calm     84 % 0 mm
22:49 6.9 °C 4.8 °C 1019.9 hPa Calm     86 % 0 mm
22:54 7 °C 4.8 °C 1019.9 hPa Calm     86 % 0 mm
22:59 7 °C 4.8 °C 1019.9 hPa Calm     86 % 0 mm
23:04 6.9 °C 4.8 °C 1019.9 hPa Calm     86 % 0 mm
23:09 6.9 °C 4.7 °C 1019.9 hPa Calm     86 % 0 mm
23:14 6.8 °C 4.8 °C 1019.9 hPa Calm     87 % 0 mm
23:19 6.8 °C 4.8 °C 1019.9 hPa Calm     87 % 0 mm
23:24 6.8 °C 4.8 °C 1019.9 hPa Calm     87 % 0 mm
23:29 6.7 °C 4.7 °C 1019.9 hPa Calm     87 % 0 mm
23:34 6.7 °C 4.9 °C 1019.9 hPa Calm     88 % 0 mm
23:39 6.7 °C 4.9 °C 1019.9 hPa Calm     88 % 0 mm
Ararat Weather
Compliments of Weather Underground - 2 mb
Click here to send mail.


ABOUT

Live weather data from Ararat, Victoria, Australia, 3377
Data uploaded from Cumulus every 5 minutes to Weather Underground.
This site then downloads the raw data for formatting and display.
Metric and imperial data can be displayed. Graphs and historical data available.
Includes Sun and Moon times and rain image live from BOM.

Check out Ararat Weather on Facebook, Twitter and Google +

Help support ongoing costs by checking out the ads





Follow @AraratWeather